Pagrindinis puslapis
METAR-TAF:

METAR-TAF

Oro uostai :

Hammerfest, Norvegija

platuma: 70-40N, ilguma: 023-40E, Aukštis: 8 m

Dabartinis oras

Ataskaita buvo paskelbta 27 minutes, ne 10:50 UTC
Vėjas 10 kt iš Vakarų, svyruoja nuo Vakarų/Pietvakarių ir Vakarų/Šiaurės Vakarų
Temperatūra 9°C
Drėgmė 100%
Slėgis 1015 hPa
Matomumas: 1000 m
rūkas

METAR: ENHF 221050Z 28010KT 240V300 1000 FG VV003 09/09 Q1015 RMK WIND 1254FT 29020KT

Laikas: 13:17 (11:17 UTC)

Prognozė

Ataskaita buvo paskelbta 3 valandos ir 17 minutes, ne 08:00 UTC
Prognozė galioja nuo 22 metu 09 UTC su 22 metu 18 UTC
Vėjas 15 kt iš Vakarų
Matomumas 10 km arba daugiau
Mažai debesys ne aukštis 500 ft
Su prošvaistėmis ne aukštis 2000 ft
Laikinai
nuo 22 metu 09 UTC su 22 metu 18 UTC
Vėjas 5 kt nuo kintamojo kryptimis su gūsio iki 15 kt
Laikinai
nuo 22 metu 09 UTC su 22 metu 12 UTC
Matomumas: 4000 m
Su prošvaistėmis ne aukštis 400 ft
rūkana

TAF: ENHF 220800Z 2209/2218 26015KT 9999 FEW005 BKN020 TEMPO 2209/2218 VRB05G15KT TEMPO 2209/2212 4000 BR BKN004

Orai ataskaitas ir orų prognozės (METAR, TAF).

turimą stotys yra geltonos ir raudonos taškus žemėlapyje.

Perkelti pele per norėdami pamatyti stoties vardą.

Tada spustelėkite, norėdami matyti oro stebėjimo ir prognozės.

Norėdami pakeisti žemėlapį: spustelėkite ant žalios mygtukų su juodo kryžiaus žemyn,; žalią mygtuką su brūkšneliu, jei norite nutolinti; arba žalių rodyklių gretimoms žemėlapius.


METAR-TAF: